Time;durP1;ratioP1;P1;durP2;ratioP2;P2;SDS_P1;SDS_P2;PMS_P1;PMS_P2;Temp;Humidity;BMP_temperature;BMP_pressure;BME280_temperature;BME280_humidity;BME280_pressure;Samples;Min_cycle;Max_cycle;Signal;HPM_P1;HPM_P2
2021/10/21 00:00:24;;;;;;;1.47;1.40;;;;;;;;;;5118894;28;20209;-69
2021/10/21 00:02:53;;;;;;;1.57;1.10;;;;;;;;;;5118831;28;20215;-68
2021/10/21 00:05:21;;;;;;;1.17;1.07;;;;;;;;;;5118576;28;20304;-68
2021/10/21 00:07:49;;;;;;;1.20;1.10;;;;;;;;;;5118414;27;20231;-69
2021/10/21 00:10:18;;;;;;;4.00;1.20;;;;;;;;;;5118879;28;20211;-69
2021/10/21 00:12:46;;;;;;;1.30;1.13;;;;;;;;;;5118778;28;20555;-68
2021/10/21 00:15:14;;;;;;;1.30;1.20;;;;;;;;;;5118512;28;20224;-69
2021/10/21 00:17:42;;;;;;;1.17;1.07;;;;;;;;;;5118460;28;20678;-68
2021/10/21 00:20:12;;;;;;;3.37;1.40;;;;;;;;;;5118705;28;20200;-68
2021/10/21 00:22:42;;;;;;;3.33;1.43;;;;;;;;;;5118582;28;20258;-68
2021/10/21 00:25:11;;;;;;;1.30;1.20;;;;;;;;;;5119207;28;20284;-68
2021/10/21 00:27:38;;;;;;;1.33;1.20;;;;;;;;;;5118663;28;20200;-68
2021/10/21 00:30:07;;;;;;;2.83;1.53;;;;;;;;;;5117844;28;20211;-68
2021/10/21 00:32:35;;;;;;;1.30;1.20;;;;;;;;;;5118119;28;20231;-69
2021/10/21 00:35:03;;;;;;;1.77;1.33;;;;;;;;;;5118184;28;20246;-68
2021/10/21 00:37:32;;;;;;;2.00;1.40;;;;;;;;;;5117885;28;20630;-68
2021/10/21 00:40:00;;;;;;;2.63;1.63;;;;;;;;;;5117891;28;20243;-68
2021/10/21 00:42:28;;;;;;;1.40;1.30;;;;;;;;;;5118096;28;20568;-68
2021/10/21 00:44:56;;;;;;;4.03;1.40;;;;;;;;;;5117914;28;20224;-68
2021/10/21 00:47:24;;;;;;;2.20;1.40;;;;;;;;;;5118239;28;20205;-68
2021/10/21 00:49:52;;;;;;;3.63;1.50;;;;;;;;;;5118113;28;20200;-68
2021/10/21 00:52:20;;;;;;;3.87;1.87;;;;;;;;;;5117795;28;20683;-68
2021/10/21 00:54:50;;;;;;;3.10;1.70;;;;;;;;;;5118207;28;20235;-67
2021/10/21 00:57:18;;;;;;;1.93;1.60;;;;;;;;;;5118264;28;20211;-69
2021/10/21 00:59:47;;;;;;;3.23;1.87;;;;;;;;;;5118098;28;20235;-68
2021/10/21 01:02:15;;;;;;;3.23;1.90;;;;;;;;;;5118191;28;20211;-68
2021/10/21 01:04:43;;;;;;;4.37;1.83;;;;;;;;;;5118717;28;20779;-68
2021/10/21 01:07:12;;;;;;;1.93;1.80;;;;;;;;;;5117847;28;20292;-68
2021/10/21 01:09:40;;;;;;;5.60;1.90;;;;;;;;;;5117955;28;20321;-68
2021/10/21 01:12:10;;;;;;;2.23;1.93;;;;;;;;;;5117901;28;20557;-68
2021/10/21 01:14:38;;;;;;;2.13;1.50;;;;;;;;;;5118208;28;20221;-68
2021/10/21 01:17:06;;;;;;;2.30;1.70;;;;;;;;;;5117671;28;20239;-67
2021/10/21 01:19:34;;;;;;;1.67;1.57;;;;;;;;;;5117932;28;20227;-68
2021/10/21 01:22:04;;;;;;;2.27;2.07;;;;;;;;;;5117817;28;20207;-68
2021/10/21 01:24:32;;;;;;;3.10;1.90;;;;;;;;;;5117722;28;20227;-67
2021/10/21 01:27:00;;;;;;;1.77;1.67;;;;;;;;;;5118131;28;20207;-68
2021/10/21 01:29:28;;;;;;;4.30;1.60;;;;;;;;;;5117993;28;20201;-65
2021/10/21 01:31:56;;;;;;;1.93;1.70;;;;;;;;;;5117899;28;20211;-66
2021/10/21 01:34:24;;;;;;;1.90;1.80;;;;;;;;;;5117354;28;20220;-67
2021/10/21 01:36:53;;;;;;;1.57;1.47;;;;;;;;;;5117535;28;20209;-68
2021/10/21 01:39:25;;;;;;;1.73;1.63;;;;;;;;;;5117463;28;20255;-67
2021/10/21 01:41:54;;;;;;;1.90;1.73;;;;;;;;;;5119797;28;20672;-67
2021/10/21 01:44:22;;;;;;;1.70;1.60;;;;;;;;;;5121458;28;20231;-67
2021/10/21 01:46:50;;;;;;;1.47;1.37;;;;;;;;;;5121183;28;20211;-67
2021/10/21 01:49:18;;;;;;;1.53;1.40;;;;;;;;;;5121552;28;20205;-68
2021/10/21 01:51:47;;;;;;;1.60;1.50;;;;;;;;;;5121441;28;20204;-68
2021/10/21 01:54:15;;;;;;;1.70;1.60;;;;;;;;;;5121192;28;20225;-68
2021/10/21 01:56:45;;;;;;;3.87;1.93;;;;;;;;;;5121244;28;20633;-67
2021/10/21 01:59:13;;;;;;;1.60;1.50;;;;;;;;;;5121238;28;20221;-68
2021/10/21 02:01:42;;;;;;;1.77;1.67;;;;;;;;;;5121089;28;20258;-67
2021/10/21 02:04:11;;;;;;;1.37;1.33;;;;;;;;;;5108231;28;20224;-67
2021/10/21 02:06:38;;;;;;;1.80;1.37;;;;;;;;;;5121310;28;20213;-67
2021/10/21 02:09:06;;;;;;;1.20;1.20;;;;;;;;;;5120889;28;20193;-67
2021/10/21 02:11:34;;;;;;;1.27;1.20;;;;;;;;;;5121450;28;20264;-68
2021/10/21 02:14:04;;;;;;;1.33;1.23;;;;;;;;;;5121230;28;20261;-68
2021/10/21 02:16:32;;;;;;;1.50;1.40;;;;;;;;;;5120745;27;20230;-68
2021/10/21 02:19:00;;;;;;;1.53;1.43;;;;;;;;;;5121227;28;20288;-67
2021/10/21 02:21:28;;;;;;;3.00;1.50;;;;;;;;;;5120987;28;20205;-67
2021/10/21 02:23:56;;;;;;;1.50;1.40;;;;;;;;;;5120310;28;20307;-68
2021/10/21 02:26:24;;;;;;;3.93;2.13;;;;;;;;;;5120856;28;20209;-68
2021/10/21 02:28:52;;;;;;;1.33;1.23;;;;;;;;;;5120731;28;20268;-67
2021/10/21 02:31:21;;;;;;;1.70;1.33;;;;;;;;;;5120754;28;20212;-68
2021/10/21 02:33:49;;;;;;;1.40;1.30;;;;;;;;;;5120606;28;20221;-67
2021/10/21 02:36:17;;;;;;;1.13;1.13;;;;;;;;;;5120601;28;20219;-68
2021/10/21 02:38:45;;;;;;;1.47;1.23;;;;;;;;;;5120078;28;20268;-68
2021/10/21 02:41:13;;;;;;;2.10;1.40;;;;;;;;;;5120664;28;20220;-67
2021/10/21 02:43:43;;;;;;;1.37;1.10;;;;;;;;;;5120716;27;20205;-67
2021/10/21 02:46:11;;;;;;;1.33;1.23;;;;;;;;;;5120611;28;20212;-68
2021/10/21 02:48:41;;;;;;;1.90;1.23;;;;;;;;;;5120832;28;20201;-67
2021/10/21 02:51:09;;;;;;;1.33;1.23;;;;;;;;;;5120064;28;20208;-67
2021/10/21 02:53:37;;;;;;;1.60;1.47;;;;;;;;;;5119293;28;20211;-68
2021/10/21 02:56:05;;;;;;;1.37;1.27;;;;;;;;;;5120275;28;20200;-67
2021/10/21 02:58:33;;;;;;;2.63;1.40;;;;;;;;;;5120169;28;20667;-67
2021/10/21 03:01:01;;;;;;;1.40;1.30;;;;;;;;;;5120075;28;20696;-67
2021/10/21 03:03:29;;;;;;;2.73;1.57;;;;;;;;;;5120681;28;20229;-68
2021/10/21 03:05:59;;;;;;;1.40;1.30;;;;;;;;;;5120179;28;20215;-68
2021/10/21 03:08:27;;;;;;;1.40;1.30;;;;;;;;;;5119781;28;20217;-68
2021/10/21 03:10:56;;;;;;;1.10;1.00;;;;;;;;;;5120130;28;20197;-68
2021/10/21 03:13:24;;;;;;;1.93;1.20;;;;;;;;;;5119853;28;20248;-67
2021/10/21 03:15:52;;;;;;;1.67;1.30;;;;;;;;;;5120135;28;20229;-68
2021/10/21 03:18:20;;;;;;;2.47;1.27;;;;;;;;;;5120029;28;20227;-68
2021/10/21 03:20:47;;;;;;;3.20;1.33;;;;;;;;;;5119594;28;20220;-67
2021/10/21 03:23:19;;;;;;;3.17;1.17;;;;;;;;;;5119580;28;20209;-68
2021/10/21 03:25:47;;;;;;;1.33;1.23;;;;;;;;;;5119472;28;20884;-68
2021/10/21 03:28:15;;;;;;;1.57;1.47;;;;;;;;;;5119462;28;20201;-67
2021/10/21 03:30:43;;;;;;;2.00;1.10;;;;;;;;;;5119708;28;20205;-68
2021/10/21 03:33:11;;;;;;;1.77;1.33;;;;;;;;;;5119253;28;20228;-68
2021/10/21 03:35:39;;;;;;;1.30;1.20;;;;;;;;;;5119238;28;20642;-67
2021/10/21 03:38:07;;;;;;;1.80;1.13;;;;;;;;;;5119364;28;20652;-67
2021/10/21 03:40:37;;;;;;;1.90;1.37;;;;;;;;;;5118988;28;20240;-67
2021/10/21 03:43:05;;;;;;;1.30;1.20;;;;;;;;;;5119263;28;20573;-67
2021/10/21 03:45:33;;;;;;;2.03;1.20;;;;;;;;;;5119112;28;20586;-68
2021/10/21 03:48:01;;;;;;;1.23;1.13;;;;;;;;;;5119087;28;20226;-68
2021/10/21 03:50:29;;;;;;;1.47;1.13;;;;;;;;;;5119165;28;20664;-68
2021/10/21 03:52:57;;;;;;;2.00;0.97;;;;;;;;;;5108340;28;20196;-66
2021/10/21 03:55:25;;;;;;;1.30;1.13;;;;;;;;;;5119047;27;20312;-66
2021/10/21 03:57:54;;;;;;;2.47;1.13;;;;;;;;;;5119118;28;20204;-66
2021/10/21 04:00:22;;;;;;;1.00;1.00;;;;;;;;;;5118256;28;20586;-66
2021/10/21 04:02:50;;;;;;;3.20;1.50;;;;;;;;;;5116357;28;20574;-65
2021/10/21 04:05:18;;;;;;;2.13;1.30;;;;;;;;;;5117601;28;20255;-65
2021/10/21 04:07:46;;;;;;;3.27;1.30;;;;;;;;;;5118491;28;20283;-65
2021/10/21 04:10:14;;;;;;;1.50;1.40;;;;;;;;;;5118165;28;20196;-65
2021/10/21 04:12:42;;;;;;;2.13;1.20;;;;;;;;;;5118445;28;20204;-65
2021/10/21 04:15:12;;;;;;;2.50;1.33;;;;;;;;;;5118171;28;20259;-68
2021/10/21 04:17:40;;;;;;;3.87;2.03;;;;;;;;;;5118344;28;20327;-66
2021/10/21 04:20:08;;;;;;;1.50;1.33;;;;;;;;;;5118115;28;20209;-66
2021/10/21 04:22:36;;;;;;;2.20;1.47;;;;;;;;;;5117859;28;20587;-66
2021/10/21 04:25:04;;;;;;;1.57;1.47;;;;;;;;;;5117837;28;20654;-66
2021/10/21 04:27:32;;;;;;;2.23;1.50;;;;;;;;;;5118216;28;20208;-66
2021/10/21 04:30:00;;;;;;;2.20;2.00;;;;;;;;;;5118213;28;20215;-66
2021/10/21 04:32:30;;;;;;;2.20;1.50;;;;;;;;;;5118089;28;20243;-66
2021/10/21 04:34:58;;;;;;;4.80;1.87;;;;;;;;;;5118036;28;20232;-66
2021/10/21 04:37:26;;;;;;;6.23;2.00;;;;;;;;;;5118073;28;20208;-66
2021/10/21 04:39:54;;;;;;;1.57;1.47;;;;;;;;;;5117996;28;20268;-66
2021/10/21 04:42:22;;;;;;;2.67;1.50;;;;;;;;;;5118050;28;20228;-66
2021/10/21 04:44:50;;;;;;;2.90;1.33;;;;;;;;;;5125092;27;20221;-66
2021/10/21 04:47:18;;;;;;;2.27;1.70;;;;;;;;;;5126944;27;20193;-67
2021/10/21 04:49:48;;;;;;;3.10;1.67;;;;;;;;;;5127350;27;20211;-66
2021/10/21 04:52:16;;;;;;;2.63;1.73;;;;;;;;;;5124938;27;20284;-67
2021/10/21 04:54:44;;;;;;;4.43;2.27;;;;;;;;;;5126288;27;20216;-65
2021/10/21 04:57:12;;;;;;;1.70;1.60;;;;;;;;;;5125370;28;20200;-66
2021/10/21 04:59:40;;;;;;;2.97;1.80;;;;;;;;;;5125864;28;20199;-66
2021/10/21 05:02:09;;;;;;;3.60;1.80;;;;;;;;;;5126473;28;20213;-67
2021/10/21 05:04:37;;;;;;;6.77;1.57;;;;;;;;;;5128733;28;20644;-66
2021/10/21 05:07:07;;;;;;;3.63;1.83;;;;;;;;;;5123613;28;20207;-66
2021/10/21 05:09:35;;;;;;;4.17;1.40;;;;;;;;;;5117362;28;20201;-67
2021/10/21 05:12:03;;;;;;;2.40;1.70;;;;;;;;;;5117810;28;20217;-67
2021/10/21 05:14:31;;;;;;;5.57;1.33;;;;;;;;;;5117530;28;20228;-67
2021/10/21 05:16:59;;;;;;;3.77;1.70;;;;;;;;;;5121631;28;20217;-67
2021/10/21 05:19:27;;;;;;;3.33;1.83;;;;;;;;;;5121955;28;20253;-67
2021/10/21 05:21:55;;;;;;;8.27;2.67;;;;;;;;;;5124980;27;20219;-65
2021/10/21 05:24:24;;;;;;;7.03;1.60;;;;;;;;;;5121509;28;20581;-66
2021/10/21 05:26:52;;;;;;;4.80;1.63;;;;;;;;;;5125549;27;20205;-66
2021/10/21 05:29:21;;;;;;;3.33;1.10;;;;;;;;;;5128619;27;20197;-65
2021/10/21 05:31:49;;;;;;;4.23;1.30;;;;;;;;;;5128134;27;20192;-65
2021/10/21 05:34:17;;;;;;;3.87;1.50;;;;;;;;;;5130376;27;20227;-65
2021/10/21 05:36:45;;;;;;;6.23;1.73;;;;;;;;;;5130721;27;20207;-65
2021/10/21 05:39:13;;;;;;;4.23;1.63;;;;;;;;;;5131772;27;20228;-65
2021/10/21 05:41:43;;;;;;;6.10;1.70;;;;;;;;;;5129091;27;20217;-65
2021/10/21 05:44:11;;;;;;;5.10;1.73;;;;;;;;;;5128566;27;20220;-65
2021/10/21 05:46:39;;;;;;;4.87;1.60;;;;;;;;;;5121773;27;20269;-66
2021/10/21 05:49:07;;;;;;;4.97;1.97;;;;;;;;;;5121109;28;20580;-66
2021/10/21 05:51:35;;;;;;;5.20;1.53;;;;;;;;;;5121080;28;20207;-65
2021/10/21 05:54:03;;;;;;;4.80;1.80;;;;;;;;;;5126755;27;20217;-65
2021/10/21 05:56:31;;;;;;;7.63;1.63;;;;;;;;;;5126345;27;20193;-66
2021/10/21 05:59:00;;;;;;;7.77;2.47;;;;;;;;;;5129949;27;20204;-66
2021/10/21 06:01:28;;;;;;;3.03;1.50;;;;;;;;;;5129650;27;20223;-66
2021/10/21 06:03:57;;;;;;;3.97;2.17;;;;;;;;;;5127385;27;20275;-66
2021/10/21 06:06:25;;;;;;;4.20;1.30;;;;;;;;;;5133401;27;20288;-67
2021/10/21 06:08:53;;;;;;;5.33;1.77;;;;;;;;;;5123846;27;20239;-67
2021/10/21 06:11:21;;;;;;;5.37;2.50;;;;;;;;;;5121085;28;20228;-66
2021/10/21 06:13:51;;;;;;;10.60;2.03;;;;;;;;;;5120836;28;20221;-67
2021/10/21 06:16:21;;;;;;;5.63;1.50;;;;;;;;;;5120548;28;20205;-66
2021/10/21 06:18:49;;;;;;;10.07;2.07;;;;;;;;;;5120860;27;20223;-66
2021/10/21 06:21:23;;;;;;;6.87;1.93;;;;;;;;;;5120828;28;20205;-67
2021/10/21 06:23:51;;;;;;;9.20;1.70;;;;;;;;;;5120194;28;20609;-67
2021/10/21 06:26:20;;;;;;;8.13;1.60;;;;;;;;;;5111303;28;20206;-67
2021/10/21 06:28:50;;;;;;;6.83;1.80;;;;;;;;;;5120289;28;20220;-66
2021/10/21 06:31:19;;;;;;;7.90;2.30;;;;;;;;;;5120448;28;20208;-67
2021/10/21 06:33:50;;;;;;;6.53;1.83;;;;;;;;;;5120459;28;20668;-66
2021/10/21 06:36:18;;;;;;;2.67;1.43;;;;;;;;;;5120703;28;20209;-67
2021/10/21 06:38:46;;;;;;;7.87;2.00;;;;;;;;;;5119870;28;20237;-67
2021/10/21 06:41:14;;;;;;;11.70;1.80;;;;;;;;;;5120473;28;20292;-67
2021/10/21 06:43:42;;;;;;;8.57;2.20;;;;;;;;;;5120340;28;20732;-66
2021/10/21 06:46:10;;;;;;;4.03;1.63;;;;;;;;;;5120032;28;20763;-67
2021/10/21 06:48:38;;;;;;;8.47;1.80;;;;;;;;;;5120389;28;20258;-67
2021/10/21 06:51:08;;;;;;;3.77;1.30;;;;;;;;;;5120079;28;20806;-67
2021/10/21 06:53:36;;;;;;;6.93;1.33;;;;;;;;;;5120090;28;20215;-66
2021/10/21 06:56:04;;;;;;;6.13;1.83;;;;;;;;;;5119822;28;20239;-67
2021/10/21 06:58:33;;;;;;;7.33;1.97;;;;;;;;;;5127311;27;20196;-68
2021/10/21 07:01:01;;;;;;;6.67;2.13;;;;;;;;;;5128248;27;20279;-66
2021/10/21 07:03:29;;;;;;;8.77;1.73;;;;;;;;;;5128281;27;20694;-66
2021/10/21 07:05:58;;;;;;;7.43;2.80;;;;;;;;;;5123140;27;20201;-66
2021/10/21 07:08:29;;;;;;;8.60;2.57;;;;;;;;;;5119571;28;20212;-66
2021/10/21 07:10:57;;;;;;;7.40;1.97;;;;;;;;;;5119740;28;20205;-66
2021/10/21 07:13:25;;;;;;;4.13;1.77;;;;;;;;;;5119855;28;20204;-66
2021/10/21 07:16:05;;;;;;;11.83;3.17;;;;;;;;;;5119872;28;20251;-66
2021/10/21 07:18:33;;;;;;;7.73;1.93;;;;;;;;;;5119691;28;20205;-66
2021/10/21 07:21:02;;;;;;;7.43;2.10;;;;;;;;;;5119550;28;20546;-66
2021/10/21 07:23:32;;;;;;;3.20;1.47;;;;;;;;;;5119006;28;20683;-66
2021/10/21 07:26:00;;;;;;;6.20;1.70;;;;;;;;;;5119267;28;20243;-66
2021/10/21 07:28:28;;;;;;;7.50;1.73;;;;;;;;;;5119560;28;20207;-66
2021/10/21 07:30:57;;;;;;;6.20;2.33;;;;;;;;;;5119675;27;20227;-66
2021/10/21 07:33:26;;;;;;;12.90;2.60;;;;;;;;;;5119514;28;20280;-67
2021/10/21 07:35:56;;;;;;;6.83;2.00;;;;;;;;;;5119125;28;20575;-66
2021/10/21 07:38:24;;;;;;;6.30;2.13;;;;;;;;;;5119074;28;20209;-66
2021/10/21 07:40:54;;;;;;;10.23;2.80;;;;;;;;;;5118859;28;20240;-66
2021/10/21 07:43:22;;;;;;;5.90;2.00;;;;;;;;;;5119148;28;20347;-66
2021/10/21 07:45:50;;;;;;;8.10;2.50;;;;;;;;;;5118836;28;20227;-66
2021/10/21 07:48:18;;;;;;;6.40;1.57;;;;;;;;;;5119048;28;20215;-66
2021/10/21 07:50:46;;;;;;;7.10;2.10;;;;;;;;;;5118716;28;20631;-66
2021/10/21 07:53:14;;;;;;;2.60;1.23;;;;;;;;;;5118719;28;20265;-66
2021/10/21 07:55:42;;;;;;;8.67;2.13;;;;;;;;;;5118838;28;20235;-66
2021/10/21 07:58:12;;;;;;;7.03;1.97;;;;;;;;;;5118892;28;20201;-66
2021/10/21 08:00:40;;;;;;;3.90;1.83;;;;;;;;;;5118809;28;20278;-66
2021/10/21 08:03:08;;;;;;;10.37;3.17;;;;;;;;;;5118333;28;20695;-66
2021/10/21 08:05:37;;;;;;;11.57;3.37;;;;;;;;;;5118690;28;20341;-66
2021/10/21 08:08:05;;;;;;;12.17;3.00;;;;;;;;;;5118504;28;20212;-66
2021/10/21 08:10:33;;;;;;;14.23;2.33;;;;;;;;;;5118660;27;20208;-66
2021/10/21 08:13:02;;;;;;;10.77;3.13;;;;;;;;;;5118697;28;20291;-66
2021/10/21 08:15:31;;;;;;;11.27;2.93;;;;;;;;;;5118248;28;20675;-66
2021/10/21 08:17:59;;;;;;;11.57;2.70;;;;;;;;;;5118644;28;20216;-65
2021/10/21 08:20:28;;;;;;;10.40;2.23;;;;;;;;;;5118734;28;20292;-66
2021/10/21 08:23:03;;;;;;;8.07;2.37;;;;;;;;;;5118376;28;20227;-66
2021/10/21 08:25:31;;;;;;;7.57;2.37;;;;;;;;;;5118403;28;20274;-66
2021/10/21 08:28:00;;;;;;;14.87;2.60;;;;;;;;;;5118011;28;20205;-66
2021/10/21 08:30:29;;;;;;;6.93;2.03;;;;;;;;;;5118089;28;20250;-66
2021/10/21 08:32:59;;;;;;;11.73;2.37;;;;;;;;;;5118241;28;20228;-66
2021/10/21 08:35:29;;;;;;;7.17;2.20;;;;;;;;;;5118410;27;20307;-65
2021/10/21 08:37:58;;;;;;;9.33;3.83;;;;;;;;;;5118087;28;20209;-66
2021/10/21 08:40:26;;;;;;;9.47;2.77;;;;;;;;;;5114560;27;20319;-66
2021/10/21 08:42:55;;;;;;;8.93;3.13;;;;;;;;;;5117628;28;20735;-66
2021/10/21 08:45:23;;;;;;;14.60;3.60;;;;;;;;;;5114325;28;20281;-66
2021/10/21 08:47:54;;;;;;;10.23;2.77;;;;;;;;;;5107957;28;20206;-66
2021/10/21 08:50:24;;;;;;;8.83;2.50;;;;;;;;;;5117202;28;20201;-66
2021/10/21 08:52:52;;;;;;;12.13;3.03;;;;;;;;;;5117729;28;20257;-66
2021/10/21 08:55:21;;;;;;;12.73;2.80;;;;;;;;;;5117760;28;20280;-66
2021/10/21 08:57:49;;;;;;;9.73;2.20;;;;;;;;;;5117525;28;20556;-66
2021/10/21 09:00:18;;;;;;;11.07;2.13;;;;;;;;;;5117756;28;20304;-66
2021/10/21 09:02:50;;;;;;;7.53;2.30;;;;;;;;;;5102157;28;20224;-67
2021/10/21 09:05:26;;;;;;;12.47;2.10;;;;;;;;;;5117757;27;20229;-66
2021/10/21 09:08:07;;;;;;;5.00;1.70;;;;;;;;;;5123136;28;20279;-66
2021/10/21 09:10:43;;;;;;;5.43;1.80;;;;;;;;;;5125102;28;20196;-67
2021/10/21 09:13:18;;;;;;;6.10;1.60;;;;;;;;;;5117419;28;20197;-67
2021/10/21 09:15:48;;;;;;;8.77;1.70;;;;;;;;;;5117690;28;20226;-66
2021/10/21 09:18:17;;;;;;;5.60;1.33;;;;;;;;;;5117333;28;20247;-67
2021/10/21 09:20:48;;;;;;;7.60;1.93;;;;;;;;;;5117250;28;20208;-67
2021/10/21 09:23:19;;;;;;;5.27;1.47;;;;;;;;;;5117416;28;20701;-67
2021/10/21 09:25:47;;;;;;;7.90;1.67;;;;;;;;;;5117516;28;20289;-67
2021/10/21 09:28:20;;;;;;;5.03;1.43;;;;;;;;;;5117649;28;20284;-66
2021/10/21 09:30:56;;;;;;;8.07;2.17;;;;;;;;;;5117329;28;20220;-66
2021/10/21 09:33:25;;;;;;;14.53;2.80;;;;;;;;;;5117742;28;20205;-67
2021/10/21 09:35:56;;;;;;;5.43;2.00;;;;;;;;;;5117778;28;20201;-69
2021/10/21 09:38:28;;;;;;;3.40;1.50;;;;;;;;;;5117622;28;20201;-67
2021/10/21 09:40:58;;;;;;;7.83;2.00;;;;;;;;;;5117719;28;20205;-67
2021/10/21 09:43:29;;;;;;;6.97;1.67;;;;;;;;;;5117616;28;20224;-67
2021/10/21 09:45:58;;;;;;;7.97;1.87;;;;;;;;;;5117394;28;20200;-66
2021/10/21 09:48:27;;;;;;;8.80;2.00;;;;;;;;;;5117580;28;20283;-66
2021/10/21 09:50:55;;;;;;;10.57;2.97;;;;;;;;;;5117326;28;20280;-66
2021/10/21 09:53:24;;;;;;;9.97;1.83;;;;;;;;;;5117064;28;20204;-66
2021/10/21 09:55:55;;;;;;;5.80;1.87;;;;;;;;;;5117428;28;20221;-66
2021/10/21 09:58:25;;;;;;;10.00;2.20;;;;;;;;;;5117432;28;20193;-66
2021/10/21 10:01:04;;;;;;;8.47;2.00;;;;;;;;;;5103747;28;20208;-66
2021/10/21 10:03:33;;;;;;;9.37;2.50;;;;;;;;;;5119914;28;20229;-64
2021/10/21 10:06:01;;;;;;;9.60;2.10;;;;;;;;;;5121319;28;20224;-67
2021/10/21 10:08:29;;;;;;;5.03;1.20;;;;;;;;;;5120650;28;20243;-66
2021/10/21 10:10:59;;;;;;;6.37;1.60;;;;;;;;;;5120887;28;20213;-66
2021/10/21 10:13:28;;;;;;;10.00;2.30;;;;;;;;;;5120656;28;20543;-67
2021/10/21 10:15:57;;;;;;;6.67;1.57;;;;;;;;;;5120657;28;20216;-68
2021/10/21 10:18:26;;;;;;;3.70;1.50;;;;;;;;;;5120720;28;20287;-68
2021/10/21 10:21:10;;;;;;;7.80;1.97;;;;;;;;;;5120745;28;20209;-67
2021/10/21 10:23:40;;;;;;;10.87;1.90;;;;;;;;;;5120213;28;20656;-67
2021/10/21 10:26:09;;;;;;;8.83;2.00;;;;;;;;;;5124960;27;20280;-70
2021/10/21 10:28:50;;;;;;;9.47;2.83;;;;;;;;;;5130634;27;20235;-70
2021/10/21 10:31:33;;;;;;;4.67;1.93;;;;;;;;;;5117024;28;20279;-69
2021/10/21 10:34:01;;;;;;;9.40;2.17;;;;;;;;;;5116878;28;20225;-66
2021/10/21 10:36:30;;;;;;;9.80;2.17;;;;;;;;;;5119359;28;20228;-69
2021/10/21 10:38:58;;;;;;;7.10;2.00;;;;;;;;;;5116391;28;20241;-67
2021/10/21 10:41:51;;;;;;;5.07;1.77;;;;;;;;;;5120959;27;20204;-69
2021/10/21 10:44:38;;;;;;;3.47;1.43;;;;;;;;;;5129920;27;20311;-67
2021/10/21 10:47:06;;;;;;;5.47;1.43;;;;;;;;;;5125552;27;20235;-69
2021/10/21 10:49:41;;;;;;;6.57;1.53;;;;;;;;;;5123709;27;20201;-66
2021/10/21 10:52:11;;;;;;;4.70;1.70;;;;;;;;;;5119901;28;20287;-68
2021/10/21 10:55:03;;;;;;;7.23;1.53;;;;;;;;;;5120177;28;20734;-68
2021/10/21 10:57:49;;;;;;;8.57;1.97;;;;;;;;;;5114432;28;20204;-68
2021/10/21 11:00:36;;;;;;;9.53;1.60;;;;;;;;;;5118590;28;20567;-68
2021/10/21 11:03:06;;;;;;;5.23;1.47;;;;;;;;;;5119831;28;20219;-67
2021/10/21 11:05:56;;;;;;;6.20;2.03;;;;;;;;;;5120037;28;20236;-67
2021/10/21 11:08:43;;;;;;;6.80;2.10;;;;;;;;;;5119462;28;20736;-67
2021/10/21 11:11:32;;;;;;;5.57;1.40;;;;;;;;;;5119708;28;20288;-68
2021/10/21 11:14:06;;;;;;;10.27;1.80;;;;;;;;;;5119108;28;20263;-68
2021/10/21 11:16:41;;;;;;;7.60;1.60;;;;;;;;;;5119655;28;20204;-68
2021/10/21 11:19:12;;;;;;;6.37;1.50;;;;;;;;;;5119954;28;20288;-68
2021/10/21 11:21:51;;;;;;;3.50;1.50;;;;;;;;;;5119105;28;20205;-68
2021/10/21 11:24:38;;;;;;;6.53;1.70;;;;;;;;;;5119488;28;20251;-67
2021/10/21 11:27:06;;;;;;;4.90;1.60;;;;;;;;;;5107326;28;20707;-68
2021/10/21 11:29:35;;;;;;;6.90;2.00;;;;;;;;;;5119314;28;20204;-67
2021/10/21 11:32:05;;;;;;;9.27;2.30;;;;;;;;;;5119344;28;20216;-68
2021/10/21 11:34:35;;;;;;;7.07;1.60;;;;;;;;;;5119563;28;20705;-68
2021/10/21 11:37:04;;;;;;;10.07;1.90;;;;;;;;;;5119101;28;20228;-68
2021/10/21 11:39:32;;;;;;;6.73;1.73;;;;;;;;;;5119165;28;20764;-68
2021/10/21 11:42:03;;;;;;;7.47;1.67;;;;;;;;;;5119866;28;20278;-68
2021/10/21 11:44:31;;;;;;;8.60;2.27;;;;;;;;;;5119340;28;20238;-67
2021/10/21 11:47:00;;;;;;;5.27;1.60;;;;;;;;;;5118934;28;20264;-67
2021/10/21 11:49:29;;;;;;;329.43;33.43;;;;;;;;;;5118666;28;20633;-67
2021/10/21 11:52:06;;;;;;;117.33;11.63;;;;;;;;;;5118563;28;20205;-66
2021/10/21 11:54:35;;;;;;;18.40;3.20;;;;;;;;;;5118848;28;20236;-65
2021/10/21 11:57:03;;;;;;;10.43;2.30;;;;;;;;;;5118524;28;20205;-68
2021/10/21 11:59:38;;;;;;;9.83;1.97;;;;;;;;;;5123983;27;20306;-68
2021/10/21 12:02:10;;;;;;;8.27;1.93;;;;;;;;;;5125344;27;20200;-67
2021/10/21 12:04:39;;;;;;;13.13;2.40;;;;;;;;;;5127137;27;20212;-67
2021/10/21 12:07:09;;;;;;;10.40;3.23;;;;;;;;;;5122999;27;20264;-67
2021/10/21 12:09:39;;;;;;;10.63;2.47;;;;;;;;;;5118407;28;20204;-67
2021/10/21 12:12:08;;;;;;;7.37;1.93;;;;;;;;;;5118720;28;20209;-67
2021/10/21 12:14:37;;;;;;;7.30;1.67;;;;;;;;;;5118766;28;20274;-67
2021/10/21 12:17:05;;;;;;;8.53;1.93;;;;;;;;;;5118214;28;20671;-67
2021/10/21 12:19:34;;;;;;;14.33;2.23;;;;;;;;;;5118769;28;20234;-67
2021/10/21 12:22:04;;;;;;;13.67;2.77;;;;;;;;;;5118032;28;20212;-67
2021/10/21 12:24:39;;;;;;;13.93;2.60;;;;;;;;;;5117581;27;20220;-68
2021/10/21 12:27:07;;;;;;;13.00;2.10;;;;;;;;;;5118416;28;20298;-67
2021/10/21 12:29:42;;;;;;;6.80;1.87;;;;;;;;;;5118362;28;20201;-67
2021/10/21 12:32:11;;;;;;;23.83;4.03;;;;;;;;;;5117986;28;20203;-67
2021/10/21 12:34:39;;;;;;;11.77;2.50;;;;;;;;;;5118113;28;20315;-67
2021/10/21 12:37:13;;;;;;;9.40;2.47;;;;;;;;;;5117826;28;20694;-67
2021/10/21 12:39:43;;;;;;;16.43;2.93;;;;;;;;;;5118005;28;20735;-67
2021/10/21 12:42:18;;;;;;;7.93;1.70;;;;;;;;;;5118478;28;20204;-64
2021/10/21 12:44:58;;;;;;;8.77;2.23;;;;;;;;;;5118358;28;20235;-67
2021/10/21 12:47:30;;;;;;;18.87;2.73;;;;;;;;;;5118667;27;20205;-68
2021/10/21 12:50:00;;;;;;;5.83;1.77;;;;;;;;;;5128870;28;20209;-68
2021/10/21 12:52:29;;;;;;;6.90;1.50;;;;;;;;;;5123545;27;20196;-68
2021/10/21 12:55:09;;;;;;;7.40;2.07;;;;;;;;;;5124976;27;20718;-68
2021/10/21 12:57:41;;;;;;;11.60;2.53;;;;;;;;;;5124944;28;20680;-67
2021/10/21 13:00:10;;;;;;;6.03;1.77;;;;;;;;;;5126855;28;20238;-67
2021/10/21 13:02:39;;;;;;;18.57;2.93;;;;;;;;;;5130883;28;20210;-67
2021/10/21 13:05:07;;;;;;;14.77;3.07;;;;;;;;;;5117398;28;20228;-67
2021/10/21 13:07:35;;;;;;;9.03;1.97;;;;;;;;;;5117545;28;20236;-68
2021/10/21 13:10:04;;;;;;;7.67;1.40;;;;;;;;;;5124378;28;20646;-67
2021/10/21 13:12:37;;;;;;;8.57;2.20;;;;;;;;;;5117921;28;20211;-67
2021/10/21 13:15:06;;;;;;;9.67;2.10;;;;;;;;;;5117808;28;20236;-68
2021/10/21 13:17:35;;;;;;;31.67;4.67;;;;;;;;;;5117592;28;20236;-68
2021/10/21 13:20:03;;;;;;;37.60;4.77;;;;;;;;;;5117622;28;20204;-68
2021/10/21 13:22:32;;;;;;;8.30;2.50;;;;;;;;;;5117492;28;20234;-68
2021/10/21 13:25:00;;;;;;;7.63;2.13;;;;;;;;;;5117356;28;20590;-68
2021/10/21 13:27:28;;;;;;;13.87;2.60;;;;;;;;;;5117354;28;20616;-68
2021/10/21 13:30:00;;;;;;;3.23;1.33;;;;;;;;;;5117697;28;20614;-68
2021/10/21 13:32:28;;;;;;;4.77;1.50;;;;;;;;;;5117188;28;20213;-68
2021/10/21 13:34:56;;;;;;;19.27;4.50;;;;;;;;;;5117579;28;20228;-68
2021/10/21 13:37:24;;;;;;;49.67;6.77;;;;;;;;;;5120282;28;20211;-68
2021/10/21 13:39:52;;;;;;;10.20;2.27;;;;;;;;;;5121477;28;20319;-68
2021/10/21 13:42:24;;;;;;;9.47;2.53;;;;;;;;;;5121485;28;20288;-68
2021/10/21 13:44:52;;;;;;;10.83;2.20;;;;;;;;;;5121543;28;20228;-67
2021/10/21 13:47:22;;;;;;;11.23;2.43;;;;;;;;;;5121289;28;20232;-67
2021/10/21 13:49:50;;;;;;;18.40;3.27;;;;;;;;;;5121589;28;20242;-67
2021/10/21 13:52:18;;;;;;;11.37;1.83;;;;;;;;;;5120409;27;20220;-69
2021/10/21 13:54:46;;;;;;;7.27;1.93;;;;;;;;;;5131336;27;20216;-69
2021/10/21 13:57:15;;;;;;;8.57;1.80;;;;;;;;;;5128474;27;20201;-69
2021/10/21 13:59:43;;;;;;;36.37;6.93;;;;;;;;;;5121076;28;20298;-69
2021/10/21 14:02:12;;;;;;;11.57;2.93;;;;;;;;;;5129212;27;20243;-67
2021/10/21 14:04:48;;;;;;;7.53;2.00;;;;;;;;;;5131545;27;20250;-66
2021/10/21 14:07:47;;;;;;;16.00;2.17;;;;;;;;;;5123100;27;20251;-68
2021/10/21 14:16:59;;;;;;;30.07;4.80;;;;;;;;;;5057985;28;20712;-65
2021/10/21 14:19:27;;;;;;;108.33;16.47;;;;;;;;;;5058441;28;20210;-65
2021/10/21 14:21:56;;;;;;;28.50;5.30;;;;;;;;;;5040406;28;20212;-65
2021/10/21 14:24:24;;;;;;;12.50;2.90;;;;;;;;;;5046298;28;20223;-65
2021/10/21 14:26:53;;;;;;;48.33;6.67;;;;;;;;;;5040263;28;20227;-65
2021/10/21 14:29:24;;;;;;;30.00;5.17;;;;;;;;;;5040018;28;20213;-65
2021/10/21 14:31:52;;;;;;;25.67;6.07;;;;;;;;;;5039903;28;20211;-65
2021/10/21 14:34:20;;;;;;;19.90;3.13;;;;;;;;;;5042136;28;20237;-65
2021/10/21 14:36:48;;;;;;;17.10;3.23;;;;;;;;;;5040317;28;20207;-64
2021/10/21 14:39:17;;;;;;;16.17;2.63;;;;;;;;;;5039781;28;20210;-65
2021/10/21 14:41:45;;;;;;;15.03;3.10;;;;;;;;;;5039691;28;20210;-65
2021/10/21 14:44:13;;;;;;;24.00;4.33;;;;;;;;;;5039681;28;20237;-65
2021/10/21 14:46:43;;;;;;;15.67;3.67;;;;;;;;;;5039411;28;20273;-65
2021/10/21 14:49:14;;;;;;;8.13;2.47;;;;;;;;;;5041647;28;20668;-65
2021/10/21 14:51:44;;;;;;;6.50;1.73;;;;;;;;;;5045643;28;20231;-65
2021/10/21 14:54:13;;;;;;;35.53;5.23;;;;;;;;;;5039844;28;20317;-65
2021/10/21 14:56:42;;;;;;;26.93;4.33;;;;;;;;;;5039602;28;20569;-65
2021/10/21 14:59:10;;;;;;;19.13;3.33;;;;;;;;;;5039472;28;20214;-65
2021/10/21 15:01:39;;;;;;;17.40;3.60;;;;;;;;;;5039264;28;20246;-64